createdAt,value
2019-06-20T00:01:59.247Z,76.55
2019-06-20T00:04:29.278Z,76.65
2019-06-20T00:06:59.463Z,76.54
2019-06-20T00:09:31.963Z,76.83
2019-06-20T00:12:03.084Z,77.00
2019-06-20T00:14:33.123Z,76.89
2019-06-20T00:17:03.245Z,77.55
2019-06-20T00:19:34.138Z,76.88
2019-06-20T00:22:04.279Z,77.47
2019-06-20T00:24:34.422Z,76.96
2019-06-20T00:27:04.558Z,76.98
2019-06-20T00:29:34.662Z,77.10
2019-06-20T00:32:04.946Z,77.37
2019-06-20T00:34:35.265Z,77.67
2019-06-20T00:37:05.299Z,77.56
2019-06-20T00:39:36.438Z,77.37
2019-06-20T00:42:06.699Z,77.42
2019-06-20T00:44:36.782Z,77.34
2019-06-20T00:47:06.922Z,77.02
2019-06-20T00:49:37.069Z,76.64
2019-06-20T00:52:07.200Z,76.65
2019-06-20T00:54:37.366Z,76.52
2019-06-20T00:57:07.467Z,76.67
2019-06-20T00:59:38.390Z,76.59
2019-06-20T01:02:08.464Z,76.76
2019-06-20T01:04:38.527Z,76.91
2019-06-20T01:07:08.544Z,77.11
2019-06-20T01:09:38.718Z,77.12
2019-06-20T01:12:08.885Z,77.40
2019-06-20T01:14:39.443Z,77.58
2019-06-20T01:17:09.457Z,77.56
2019-06-20T01:19:39.666Z,77.43
2019-06-20T01:22:10.461Z,77.35
2019-06-20T01:24:40.857Z,78.03
2019-06-20T01:27:11.440Z,78.12
2019-06-20T01:29:43.096Z,78.08
2019-06-20T01:32:13.724Z,77.95
2019-06-20T01:34:43.817Z,78.34
2019-06-20T01:37:13.968Z,78.59
2019-06-20T01:39:44.085Z,78.71
2019-06-20T01:42:14.345Z,78.88
2019-06-20T01:44:44.980Z,78.69
2019-06-20T01:47:15.077Z,79.12
2019-06-20T01:49:45.117Z,79.12
2019-06-20T01:52:15.726Z,79.02
2019-06-20T01:54:45.762Z,79.32
2019-06-20T01:57:16.233Z,79.75
2019-06-20T01:59:46.340Z,79.64
2019-06-20T02:02:16.517Z,79.54
2019-06-20T02:04:47.060Z,79.61
2019-06-20T02:07:17.239Z,79.77
2019-06-20T02:09:47.346Z,79.92
2019-06-20T02:12:17.525Z,79.96
2019-06-20T02:14:47.641Z,80.26
2019-06-20T02:17:18.170Z,80.56
2019-06-20T02:19:48.903Z,80.88
2019-06-20T02:22:19.092Z,81.16
2019-06-20T02:24:49.263Z,81.10
2019-06-20T02:27:20.490Z,81.29
2019-06-20T02:29:53.504Z,81.24
2019-06-20T02:32:22.488Z,81.27
2019-06-20T02:34:52.584Z,81.09
2019-06-20T02:37:22.726Z,81.42
2019-06-20T02:39:53.053Z,81.23
2019-06-20T02:42:23.274Z,81.32
2019-06-20T02:44:53.464Z,81.25
2019-06-20T02:47:23.674Z,80.97
2019-06-20T02:49:53.782Z,80.87
2019-06-20T02:52:24.517Z,80.70
2019-06-20T02:54:54.656Z,80.66
2019-06-20T02:57:24.814Z,80.68
2019-06-20T02:59:55.340Z,80.63
2019-06-20T03:02:25.414Z,80.44
2019-06-20T03:04:55.549Z,80.44
2019-06-20T03:07:26.276Z,80.65
2019-06-20T03:09:58.475Z,80.65
2019-06-20T03:12:28.575Z,80.67
2019-06-20T03:14:58.802Z,80.96
2019-06-20T03:17:28.948Z,80.62
2019-06-20T03:19:59.104Z,80.46
2019-06-20T03:22:29.332Z,80.36
2019-06-20T03:24:59.421Z,80.16
2019-06-20T03:27:29.650Z,80.48
2019-06-20T03:30:00.354Z,80.22
2019-06-20T03:32:30.599Z,80.03
2019-06-20T03:35:00.685Z,80.22
2019-06-20T03:37:30.885Z,80.03
2019-06-20T03:40:01.491Z,79.92
2019-06-20T03:42:31.661Z,79.89
2019-06-20T03:45:02.797Z,79.82
2019-06-20T03:47:33.026Z,79.67
2019-06-20T03:50:03.076Z,79.72
2019-06-20T03:52:33.319Z,79.30
2019-06-20T03:55:03.555Z,79.59
2019-06-20T03:57:34.091Z,79.72
2019-06-20T04:00:08.676Z,79.58
2019-06-20T04:02:40.882Z,79.37
2019-06-20T04:05:11.618Z,79.78
2019-06-20T04:07:42.377Z,80.05
2019-06-20T04:10:12.849Z,79.44
2019-06-20T04:12:43.056Z,79.01
2019-06-20T04:15:19.033Z,79.05
2019-06-20T04:17:49.260Z,78.93
2019-06-20T04:20:20.307Z,78.87
2019-06-20T04:22:50.871Z,78.63
2019-06-20T04:25:21.523Z,78.53
2019-06-20T04:27:51.810Z,78.75
2019-06-20T04:30:23.063Z,78.49
2019-06-20T04:32:53.638Z,78.55
2019-06-20T04:35:24.119Z,78.54
2019-06-20T04:37:54.653Z,78.43
2019-06-20T04:40:24.977Z,78.41
2019-06-20T04:42:55.223Z,78.42
2019-06-20T04:45:44.329Z,78.84
2019-06-20T04:48:14.814Z,78.57
2019-06-20T04:50:44.971Z,78.08
2019-06-20T04:53:15.133Z,78.25
2019-06-20T04:55:45.319Z,77.74
2019-06-20T04:58:16.728Z,77.23
2019-06-20T05:00:46.823Z,77.90
2019-06-20T05:03:17.117Z,78.36
2019-06-20T05:05:47.397Z,78.62
2019-06-20T05:08:18.735Z,78.42
2019-06-20T05:10:49.380Z,78.77
2019-06-20T05:13:20.505Z,79.14
2019-06-20T05:15:52.874Z,79.05
2019-06-20T05:18:28.497Z,79.03
2019-06-20T05:20:59.267Z,79.12
2019-06-20T05:23:30.310Z,79.28
2019-06-20T05:26:05.011Z,79.76
2019-06-20T05:28:35.375Z,79.84
2019-06-20T05:31:05.497Z,79.89
2019-06-20T05:33:35.700Z,79.32
2019-06-20T05:36:07.057Z,79.10
2019-06-20T05:38:39.335Z,79.17
2019-06-20T05:41:09.556Z,78.76
2019-06-20T05:43:39.683Z,78.13
2019-06-20T05:46:11.297Z,77.99
2019-06-20T05:48:49.422Z,77.07
2019-06-20T05:51:20.080Z,76.49
2019-06-20T05:53:51.434Z,75.72
2019-06-20T05:56:22.499Z,75.17
2019-06-20T05:58:52.980Z,75.24
2019-06-20T06:01:23.075Z,75.24
2019-06-20T06:03:53.528Z,74.52
2019-06-20T06:06:25.965Z,74.30
2019-06-20T06:08:56.133Z,73.95
2019-06-20T06:11:32.468Z,73.55
2019-06-20T06:14:02.604Z,72.57
2019-06-20T06:16:32.721Z,73.20
2019-06-20T06:19:03.946Z,73.76
2019-06-20T06:21:34.270Z,72.89
2019-06-20T06:24:04.437Z,73.09
2019-06-20T06:26:34.535Z,73.24
2019-06-20T06:29:04.764Z,72.81
2019-06-20T06:31:34.908Z,73.24
2019-06-20T06:34:05.112Z,73.06
2019-06-20T06:36:35.560Z,72.50
2019-06-20T06:39:08.525Z,72.76
2019-06-20T06:41:38.965Z,72.78
2019-06-20T06:44:09.075Z,73.33
2019-06-20T06:46:44.768Z,73.51
2019-06-20T06:49:11.171Z,73.32
2019-06-20T06:51:41.724Z,72.74
2019-06-20T06:54:12.115Z,72.26
2019-06-20T06:56:42.321Z,71.69
2019-06-20T06:59:12.450Z,71.51
2019-06-20T07:01:42.540Z,71.27
2019-06-20T07:04:13.440Z,70.42
2019-06-20T07:06:43.740Z,71.22
2019-06-20T07:09:13.865Z,71.44
2019-06-20T07:11:44.343Z,70.76
2019-06-20T07:14:14.617Z,71.10
2019-06-20T07:16:59.419Z,71.48
2019-06-20T07:19:16.619Z,71.50
2019-06-20T07:21:50.374Z,71.09
2019-06-20T07:24:20.531Z,70.66
2019-06-20T07:26:51.719Z,70.35
2019-06-20T07:29:21.892Z,69.43
2019-06-20T07:31:55.238Z,69.51
2019-06-20T07:34:25.507Z,69.15
2019-06-20T07:36:55.676Z,69.47
2019-06-20T07:39:26.053Z,69.83
2019-06-20T07:41:56.378Z,70.04
2019-06-20T07:44:26.941Z,70.16
2019-06-20T07:46:57.031Z,70.84
2019-06-20T07:49:27.604Z,70.89
2019-06-20T07:51:58.332Z,71.04
2019-06-20T07:54:28.586Z,71.04
2019-06-20T07:56:59.437Z,71.12
2019-06-20T07:59:29.841Z,70.38
2019-06-20T08:02:00.392Z,69.85
2019-06-20T08:04:30.595Z,69.97
2019-06-20T08:07:02.978Z,69.30
2019-06-20T08:09:44.502Z,68.12
2019-06-20T08:12:05.166Z,68.16
2019-06-20T08:14:35.306Z,67.57
2019-06-20T08:17:05.450Z,66.89
2019-06-20T08:19:35.900Z,67.48
2019-06-20T08:22:06.222Z,67.11
2019-06-20T08:24:36.473Z,66.79
2019-06-20T08:27:06.873Z,67.38
2019-06-20T08:29:37.103Z,67.24
2019-06-20T08:32:07.331Z,67.80
2019-06-20T08:34:37.983Z,68.45
2019-06-20T08:37:08.468Z,68.16
2019-06-20T08:39:38.600Z,68.24
2019-06-20T08:42:08.855Z,68.39
2019-06-20T08:44:41.305Z,68.97
2019-06-20T08:47:11.474Z,69.24
2019-06-20T08:49:41.800Z,68.59
2019-06-20T08:52:12.050Z,67.92
2019-06-20T08:54:42.271Z,67.71
2019-06-20T08:57:12.593Z,68.17
2019-06-20T08:59:42.847Z,68.76
2019-06-20T09:02:13.113Z,68.63
2019-06-20T09:04:43.209Z,68.99
2019-06-20T09:07:13.458Z,69.95
2019-06-20T09:09:43.628Z,71.04
2019-06-20T09:12:14.076Z,72.28
2019-06-20T09:14:44.208Z,73.22
2019-06-20T09:17:15.012Z,73.59
2019-06-20T09:19:46.157Z,73.27
2019-06-20T09:22:16.785Z,73.22
2019-06-20T09:24:46.853Z,73.30
2019-06-20T09:27:17.159Z,72.34
2019-06-20T09:29:47.296Z,70.38
2019-06-20T09:32:17.417Z,69.44
2019-06-20T09:34:47.639Z,69.14
2019-06-20T09:37:18.929Z,68.07
2019-06-20T09:39:51.556Z,67.51
2019-06-20T09:42:21.674Z,67.73
2019-06-20T09:44:52.624Z,66.22
2019-06-20T09:47:22.868Z,66.46
2019-06-20T09:49:55.581Z,67.41
2019-06-20T09:52:25.035Z,66.97
2019-06-20T09:54:56.127Z,66.57
2019-06-20T09:57:26.792Z,66.48
2019-06-20T10:00:07.610Z,66.25
2019-06-20T10:02:30.736Z,66.53
2019-06-20T10:05:00.915Z,67.52
2019-06-20T10:07:32.061Z,68.73
2019-06-20T10:10:02.871Z,69.84
2019-06-20T10:12:33.653Z,71.46
2019-06-20T10:15:04.159Z,70.83
2019-06-20T10:17:34.438Z,70.19
2019-06-20T10:20:05.151Z,69.78
2019-06-20T10:22:35.215Z,67.25
2019-06-20T10:25:06.183Z,66.15
2019-06-20T10:27:37.583Z,65.66
2019-06-20T10:30:14.323Z,65.23
2019-06-20T10:32:40.572Z,66.06
2019-06-20T10:35:11.168Z,65.57
2019-06-20T10:37:41.843Z,65.12
2019-06-20T10:40:13.147Z,64.80
2019-06-20T10:42:46.085Z,65.39
2019-06-20T10:45:18.976Z,66.02
2019-06-20T10:47:50.512Z,66.38
2019-06-20T10:50:21.670Z,66.29
2019-06-20T10:52:53.348Z,67.51
2019-06-20T10:55:23.496Z,67.61
2019-06-20T10:57:53.967Z,68.71
2019-06-20T11:00:31.274Z,69.34
2019-06-20T11:03:03.977Z,69.15
2019-06-20T11:05:34.956Z,68.75
2019-06-20T11:08:08.066Z,68.43
2019-06-20T11:10:39.978Z,68.51
2019-06-20T11:13:10.633Z,67.97
2019-06-20T11:15:44.440Z,67.37
2019-06-20T11:18:15.219Z,66.89
2019-06-20T11:20:48.786Z,66.35
2019-06-20T11:23:19.006Z,67.21
2019-06-20T11:25:49.390Z,68.30
2019-06-20T11:28:19.650Z,67.70
2019-06-20T11:31:07.815Z,68.96
2019-06-20T11:33:39.023Z,69.12
2019-06-20T11:36:10.084Z,68.51
2019-06-20T11:38:40.943Z,68.54
2019-06-20T11:41:12.112Z,66.54
2019-06-20T11:43:43.289Z,64.76
2019-06-20T11:46:14.269Z,65.28
2019-06-20T11:48:44.408Z,64.83
2019-06-20T11:51:14.556Z,64.64
2019-06-20T11:53:44.716Z,64.53
2019-06-20T11:56:14.981Z,63.81
2019-06-20T11:58:45.148Z,61.34
2019-06-20T12:01:15.359Z,60.89
2019-06-20T12:03:46.648Z,60.64
2019-06-20T12:06:16.994Z,60.49
2019-06-20T12:08:49.302Z,61.09
2019-06-20T12:11:19.571Z,60.42
2019-06-20T12:13:49.643Z,61.42
2019-06-20T12:16:20.041Z,62.33
2019-06-20T12:18:50.176Z,62.18
2019-06-20T12:21:22.003Z,60.93
2019-06-20T12:23:53.189Z,60.74
2019-06-20T12:26:23.701Z,60.38
2019-06-20T12:28:53.823Z,59.94
2019-06-20T12:31:24.217Z,60.40
2019-06-20T12:33:54.542Z,61.09
2019-06-20T12:36:25.048Z,61.43
2019-06-20T12:38:55.163Z,61.23
2019-06-20T12:41:25.779Z,61.16
2019-06-20T12:43:56.562Z,60.15
2019-06-20T12:46:29.058Z,60.57
2019-06-20T12:48:59.662Z,59.66
2019-06-20T12:51:30.325Z,58.16
2019-06-20T12:54:15.748Z,59.06
2019-06-20T12:56:48.190Z,58.75
2019-06-20T12:59:18.427Z,59.68
2019-06-20T13:01:49.904Z,60.46
2019-06-20T13:04:21.807Z,61.30
2019-06-20T13:06:52.982Z,62.07
2019-06-20T13:09:27.598Z,61.51
2019-06-20T13:11:59.104Z,62.07
2019-06-20T13:14:29.507Z,62.61
2019-06-20T13:16:59.957Z,62.38
2019-06-20T13:19:30.034Z,62.32
2019-06-20T13:22:02.312Z,62.29
2019-06-20T13:24:33.077Z,61.73
2019-06-20T13:27:03.199Z,60.65
2019-06-20T13:29:33.468Z,58.96
2019-06-20T13:32:04.637Z,57.89
2019-06-20T13:34:34.885Z,57.91
2019-06-20T13:37:05.196Z,57.33
2019-06-20T13:39:35.544Z,57.51
2019-06-20T13:42:05.715Z,56.04
2019-06-20T13:44:35.980Z,54.17
2019-06-20T13:47:06.190Z,53.77
2019-06-20T13:49:36.473Z,54.36
2019-06-20T13:52:07.652Z,54.97
2019-06-20T13:54:39.651Z,55.10
2019-06-20T13:59:41.633Z,53.01
2019-06-20T14:02:12.959Z,51.27
2019-06-20T14:04:44.426Z,49.38
2019-06-20T14:07:14.816Z,48.43
2019-06-20T14:09:46.492Z,47.43
2019-06-20T14:12:16.697Z,48.82
2019-06-20T14:14:47.863Z,49.95
2019-06-20T14:17:18.226Z,51.87
2019-06-20T14:19:48.734Z,52.92
2019-06-20T14:22:19.328Z,53.99
2019-06-20T14:24:55.505Z,52.68
2019-06-20T14:27:26.166Z,51.35
2019-06-20T14:29:56.258Z,49.88
2019-06-20T14:32:27.148Z,49.93
2019-06-20T14:34:59.883Z,50.14
2019-06-20T14:37:30.144Z,51.01
2019-06-20T14:40:00.947Z,51.12
2019-06-20T14:42:31.187Z,50.19
2019-06-20T14:45:01.431Z,50.59
2019-06-20T14:47:31.573Z,49.89
2019-06-20T14:50:02.337Z,49.19
2019-06-20T14:52:34.344Z,49.36
2019-06-20T14:55:04.885Z,48.48
2019-06-20T14:57:35.085Z,47.31
2019-06-20T15:00:05.715Z,46.92
2019-06-20T15:02:38.905Z,45.92
2019-06-20T15:05:14.205Z,45.71
2019-06-20T15:07:46.700Z,45.80
2019-06-20T15:10:17.537Z,44.41
2019-06-20T15:12:49.488Z,44.99
2019-06-20T15:15:19.511Z,47.22
2019-06-20T15:17:53.261Z,48.23
2019-06-20T15:20:21.859Z,50.29
2019-06-20T15:22:54.544Z,51.37
2019-06-20T15:25:24.996Z,51.25
2019-06-20T15:27:56.819Z,50.26
2019-06-20T15:30:27.478Z,48.99
2019-06-20T15:33:07.477Z,47.94
2019-06-20T15:36:03.428Z,45.73
2019-06-20T15:39:06.024Z,43.82
2019-06-20T15:41:36.205Z,43.02
2019-06-20T15:44:06.305Z,42.06
2019-06-20T15:46:36.638Z,41.20
2019-06-20T15:49:15.738Z,41.18
2019-06-20T15:51:38.666Z,43.36
2019-06-20T15:54:09.491Z,44.99
2019-06-20T15:56:39.780Z,45.96
2019-06-20T15:59:12.506Z,46.61
2019-06-20T16:01:42.724Z,47.58
2019-06-20T16:04:13.584Z,48.57
2019-06-20T16:06:44.879Z,50.01
2019-06-20T16:09:15.255Z,50.67
2019-06-20T16:11:45.505Z,51.73
2019-06-20T16:14:18.006Z,51.73
2019-06-20T16:16:48.069Z,51.94
2019-06-20T16:19:18.760Z,51.60
2019-06-20T16:21:49.462Z,52.15
2019-06-20T16:24:19.902Z,52.76
2019-06-20T16:26:51.266Z,52.83
2019-06-20T16:29:21.608Z,53.20
2019-06-20T16:31:51.714Z,53.28
2019-06-20T16:34:22.163Z,53.01
2019-06-20T16:36:52.722Z,52.58
2019-06-20T16:39:23.216Z,53.36
2019-06-20T16:41:53.653Z,53.23
2019-06-20T16:44:24.461Z,53.89
2019-06-20T16:46:54.933Z,53.84
2019-06-20T16:49:25.574Z,54.09
2019-06-20T16:51:57.318Z,54.25
2019-06-20T16:54:27.847Z,54.54
2019-06-20T16:56:58.562Z,54.66
2019-06-20T16:59:28.960Z,55.04
2019-06-20T17:01:59.596Z,55.72
2019-06-20T17:04:29.825Z,56.27
2019-06-20T17:07:00.158Z,56.56
2019-06-20T17:09:31.632Z,56.05
2019-06-20T17:12:01.865Z,56.76
2019-06-20T17:14:37.297Z,55.40
2019-06-20T17:17:15.175Z,55.31
2019-06-20T17:19:45.605Z,55.27
2019-06-20T17:22:15.778Z,55.38
2019-06-20T17:24:46.075Z,55.16
2019-06-20T17:27:18.563Z,54.95
2019-06-20T17:29:48.809Z,55.11
2019-06-20T17:32:18.991Z,54.79
2019-06-20T17:34:56.612Z,53.84
2019-06-20T17:37:27.417Z,52.76
2019-06-20T17:39:57.707Z,51.47
2019-06-20T17:42:31.273Z,51.24
2019-06-20T17:45:14.043Z,50.83
2019-06-20T17:47:44.798Z,50.97
2019-06-20T17:50:47.502Z,50.93
2019-06-20T17:53:20.089Z,50.63
2019-06-20T17:55:51.633Z,50.82
2019-06-20T17:58:22.148Z,50.83
2019-06-20T18:00:52.646Z,51.47
2019-06-20T18:03:26.805Z,52.36
2019-06-20T18:06:00.198Z,52.75
2019-06-20T18:08:30.855Z,53.07
2019-06-20T18:11:01.852Z,53.38
2019-06-20T18:13:32.088Z,53.57
2019-06-20T18:16:02.440Z,53.73
2019-06-20T18:18:35.350Z,53.36
2019-06-20T18:21:06.296Z,53.48
2019-06-20T18:23:39.518Z,53.32
2019-06-20T18:26:09.844Z,53.47
2019-06-20T18:28:40.031Z,53.84
2019-06-20T18:31:10.172Z,53.51
2019-06-20T18:33:40.960Z,54.79
2019-06-20T18:36:11.115Z,54.80
2019-06-20T18:38:41.186Z,55.17
2019-06-20T18:41:12.553Z,55.31
2019-06-20T18:43:42.693Z,55.71
2019-06-20T18:46:13.522Z,55.76
2019-06-20T18:48:45.468Z,56.56
2019-06-20T18:51:17.202Z,57.27
2019-06-20T18:53:50.513Z,57.45
2019-06-20T18:56:20.259Z,57.99
2019-06-20T18:58:50.485Z,58.13
2019-06-20T19:01:22.084Z,58.86
2019-06-20T19:03:52.953Z,59.59
2019-06-20T19:06:35.603Z,59.75
2019-06-20T19:08:55.744Z,59.99
2019-06-20T19:11:26.041Z,60.54
2019-06-20T19:13:56.739Z,61.06
2019-06-20T19:16:27.150Z,61.71
2019-06-20T19:18:57.428Z,62.42
2019-06-20T19:21:27.809Z,62.67
2019-06-20T19:23:58.992Z,63.00
2019-06-20T19:26:29.578Z,63.24
2019-06-20T19:28:59.764Z,63.51
2019-06-20T19:31:31.212Z,63.18
2019-06-20T19:34:09.402Z,63.59
2019-06-20T19:36:52.896Z,64.00
2019-06-20T19:39:23.464Z,64.10
2019-06-20T19:41:53.655Z,64.00
2019-06-20T19:44:25.328Z,64.50
2019-06-20T19:46:55.889Z,64.65
2019-06-20T19:49:25.996Z,64.82
2019-06-20T19:51:58.841Z,64.72
2019-06-20T19:54:31.090Z,64.61
2019-06-20T19:57:07.874Z,64.85
2019-06-20T19:59:49.897Z,65.15
2019-06-20T20:02:21.609Z,65.20
2019-06-20T20:04:52.519Z,65.32
2019-06-20T20:07:22.856Z,65.67
2019-06-20T20:09:53.051Z,65.67
2019-06-20T20:12:23.273Z,65.57
2019-06-20T20:14:54.087Z,66.40
2019-06-20T20:17:28.804Z,66.68
2019-06-20T20:20:01.180Z,66.92
2019-06-20T20:22:31.279Z,67.24
2019-06-20T20:25:01.345Z,67.45
2019-06-20T20:27:31.543Z,67.56
2019-06-20T20:30:03.940Z,67.64
2019-06-20T20:32:34.335Z,67.59
2019-06-20T20:35:04.618Z,67.50
2019-06-20T20:37:35.274Z,67.39
2019-06-20T20:40:06.876Z,67.55
2019-06-20T20:42:37.353Z,67.68
2019-06-20T20:45:08.418Z,67.97
2019-06-20T20:47:39.026Z,67.93
2019-06-20T20:50:10.473Z,67.77
2019-06-20T20:52:40.820Z,67.65
2019-06-20T20:55:11.900Z,67.61
2019-06-20T20:57:42.074Z,67.83
2019-06-20T21:00:13.380Z,67.83
2019-06-20T21:02:43.903Z,67.95
2019-06-20T21:05:14.103Z,68.16
2019-06-20T21:07:44.825Z,68.15
2019-06-20T21:10:15.064Z,68.15
2019-06-20T21:12:45.187Z,68.12
2019-06-20T21:15:16.327Z,68.19
2019-06-20T21:17:46.519Z,68.20
2019-06-20T21:20:18.775Z,68.04
2019-06-20T21:22:49.509Z,68.17
2019-06-20T21:25:20.573Z,68.32
2019-06-20T21:27:51.466Z,68.20
2019-06-20T21:30:21.884Z,68.32
2019-06-20T21:32:52.548Z,68.07
2019-06-20T21:35:22.900Z,68.28
2019-06-20T21:37:53.040Z,68.37
2019-06-20T21:40:23.341Z,68.49
2019-06-20T21:42:54.284Z,68.45
2019-06-20T21:45:24.887Z,68.25
2019-06-20T21:47:55.107Z,68.30
2019-06-20T21:50:25.230Z,68.23
2019-06-20T21:52:55.514Z,68.48
2019-06-20T21:55:25.725Z,68.40
2019-06-20T21:57:56.202Z,68.44
2019-06-20T22:00:30.732Z,68.54
2019-06-20T22:03:00.899Z,68.72
2019-06-20T22:05:31.154Z,68.93
2019-06-20T22:08:02.610Z,69.09
2019-06-20T22:10:32.772Z,69.20
2019-06-20T22:13:03.150Z,69.44
2019-06-20T22:15:34.773Z,69.48
2019-06-20T22:18:05.420Z,69.26
2019-06-20T22:20:35.609Z,69.41
2019-06-20T22:23:06.017Z,69.32
2019-06-20T22:25:36.899Z,69.49
2019-06-20T22:28:07.840Z,69.58
2019-06-20T22:30:51.310Z,69.80
2019-06-20T22:33:21.598Z,69.65
2019-06-20T22:35:51.893Z,69.66
2019-06-20T22:38:22.624Z,69.72
2019-06-20T22:40:53.880Z,70.13
2019-06-20T22:43:24.410Z,70.30
2019-06-20T22:45:55.351Z,70.50
2019-06-20T22:48:25.491Z,70.67
2019-06-20T22:50:57.205Z,70.87
2019-06-20T22:53:27.416Z,71.01
2019-06-20T22:55:57.675Z,71.13
2019-06-20T22:58:28.261Z,70.95
2019-06-20T23:00:58.405Z,71.06
2019-06-20T23:03:28.742Z,71.06
2019-06-20T23:05:59.055Z,71.07
2019-06-20T23:08:29.328Z,71.27
2019-06-20T23:10:59.996Z,71.45
2019-06-20T23:13:30.128Z,71.68
2019-06-20T23:16:00.625Z,72.03
2019-06-20T23:18:32.854Z,72.37
2019-06-20T23:21:05.007Z,72.58
2019-06-20T23:23:35.268Z,72.76
2019-06-20T23:26:07.090Z,73.08
2019-06-20T23:28:37.309Z,73.46
2019-06-20T23:31:07.458Z,73.69
2019-06-20T23:33:37.643Z,73.92
2019-06-20T23:36:07.685Z,74.00
2019-06-20T23:38:38.005Z,74.11
2019-06-20T23:41:09.085Z,74.31
2019-06-20T23:43:40.321Z,74.44
2019-06-20T23:46:10.403Z,74.47
2019-06-20T23:48:40.436Z,74.35
2019-06-20T23:51:24.739Z,74.25
2019-06-20T23:53:43.883Z,74.42
2019-06-20T23:56:20.801Z,74.34
2019-06-20T23:58:51.434Z,74.44
